createdAt,value
2018-03-07T00:01:42.620Z,98.83
2018-03-07T00:04:11.056Z,106.53
2018-03-07T00:06:39.533Z,101.87
2018-03-07T00:09:07.933Z,106.23
2018-03-07T00:11:36.356Z,116.00
2018-03-07T00:14:04.776Z,101.93
2018-03-07T00:16:33.183Z,96.13
2018-03-07T00:19:01.941Z,93.10
2018-03-07T00:21:30.335Z,88.27
2018-03-07T00:23:58.749Z,94.57
2018-03-07T00:26:27.155Z,92.80
2018-03-07T00:28:55.546Z,88.63
2018-03-07T00:31:24.022Z,95.53
2018-03-07T00:33:52.425Z,100.90
2018-03-07T00:36:20.839Z,94.40
2018-03-07T00:38:49.248Z,99.00
2018-03-07T00:41:17.836Z,112.93
2018-03-07T00:43:46.261Z,101.67
2018-03-07T00:46:14.683Z,100.57
2018-03-07T00:48:43.084Z,107.63
2018-03-07T00:51:11.584Z,122.60
2018-03-07T00:53:40.062Z,108.17
2018-03-07T00:56:08.481Z,119.47
2018-03-07T00:58:36.888Z,111.13
2018-03-07T01:01:05.299Z,131.67
2018-03-07T01:03:33.701Z,120.87
2018-03-07T01:06:02.280Z,116.67
2018-03-07T01:08:30.692Z,119.70
2018-03-07T01:10:59.207Z,123.87
2018-03-07T01:13:27.625Z,113.70
2018-03-07T01:15:56.172Z,113.47
2018-03-07T01:18:24.592Z,109.27
2018-03-07T01:20:53.104Z,102.63
2018-03-07T01:23:21.514Z,107.80
2018-03-07T01:25:50.048Z,115.10
2018-03-07T01:28:18.459Z,110.87
2018-03-07T01:30:47.103Z,109.63
2018-03-07T01:33:15.516Z,108.30
2018-03-07T01:35:43.939Z,108.50
2018-03-07T01:38:12.349Z,101.87
2018-03-07T01:40:40.756Z,109.30
2018-03-07T01:43:09.241Z,114.00
2018-03-07T01:45:37.633Z,112.53
2018-03-07T01:48:06.043Z,113.60
2018-03-07T01:50:34.545Z,113.90
2018-03-07T01:53:02.940Z,115.20
2018-03-07T01:55:31.464Z,119.90
2018-03-07T01:57:59.883Z,129.23
2018-03-07T02:00:28.307Z,134.73
2018-03-07T02:02:56.720Z,139.83
2018-03-07T02:05:25.119Z,138.27
2018-03-07T02:07:53.635Z,157.67
2018-03-07T02:12:55.712Z,160.83
2018-03-07T02:15:24.120Z,170.93
2018-03-07T02:17:52.527Z,164.23
2018-03-07T02:20:20.943Z,154.73
2018-03-07T02:22:49.348Z,178.13
2018-03-07T02:25:17.796Z,157.90
2018-03-07T02:27:47.224Z,170.80
2018-03-07T02:30:15.644Z,162.87
2018-03-07T02:32:44.091Z,173.53
2018-03-07T02:35:12.501Z,179.87
2018-03-07T02:37:40.975Z,161.30
2018-03-07T02:40:09.403Z,166.77
2018-03-07T02:42:37.816Z,155.63
2018-03-07T02:45:06.224Z,153.03
2018-03-07T02:47:34.635Z,155.47
2018-03-07T02:50:03.182Z,149.67
2018-03-07T02:52:31.604Z,145.07
2018-03-07T02:55:00.025Z,153.00
2018-03-07T02:57:28.444Z,155.10
2018-03-07T02:59:56.902Z,144.00
2018-03-07T03:02:25.378Z,142.60
2018-03-07T03:04:53.855Z,152.00
2018-03-07T03:07:22.272Z,144.33
2018-03-07T03:09:50.696Z,144.23
2018-03-07T03:12:19.090Z,144.20
2018-03-07T03:14:47.560Z,172.03
2018-03-07T03:17:15.988Z,159.50
2018-03-07T03:19:44.468Z,168.17
2018-03-07T03:22:12.882Z,156.53
2018-03-07T03:24:41.295Z,155.70
2018-03-07T03:27:09.770Z,171.27
2018-03-07T03:29:38.183Z,162.53
2018-03-07T03:32:06.596Z,169.50
2018-03-07T03:34:35.007Z,153.23
2018-03-07T03:37:03.415Z,154.97
2018-03-07T03:39:31.887Z,160.10
2018-03-07T03:42:00.286Z,152.80
2018-03-07T03:44:28.738Z,162.40
2018-03-07T03:46:57.143Z,172.03
2018-03-07T03:49:25.580Z,171.53
2018-03-07T03:51:54.001Z,163.97
2018-03-07T03:54:22.404Z,160.77
2018-03-07T03:56:51.204Z,160.77
2018-03-07T03:59:19.615Z,162.80
2018-03-07T04:01:48.110Z,162.80
2018-03-07T04:04:16.517Z,167.33
2018-03-07T04:06:44.919Z,155.37
2018-03-07T04:09:13.315Z,154.63
2018-03-07T04:11:41.717Z,146.53
2018-03-07T04:14:10.156Z,154.93
2018-03-07T04:16:38.564Z,157.50
2018-03-07T04:19:06.954Z,161.63
2018-03-07T04:21:35.381Z,161.00
2018-03-07T04:24:03.766Z,158.23
2018-03-07T04:26:32.199Z,164.90
2018-03-07T04:29:00.591Z,165.10
2018-03-07T04:31:29.046Z,162.93
2018-03-07T04:33:57.535Z,151.73
2018-03-07T04:36:25.958Z,144.70
2018-03-07T04:38:54.347Z,151.10
2018-03-07T04:41:22.741Z,143.07
2018-03-07T04:43:51.135Z,132.33
2018-03-07T04:46:19.675Z,136.50
2018-03-07T04:48:48.092Z,125.60
2018-03-07T04:51:16.825Z,115.43
2018-03-07T04:53:45.234Z,121.07
2018-03-07T04:56:13.618Z,114.83
2018-03-07T04:58:42.069Z,101.27
2018-03-07T05:01:10.547Z,104.77
2018-03-07T05:03:38.940Z,103.00
2018-03-07T05:06:07.361Z,106.67
2018-03-07T05:08:35.768Z,96.63
2018-03-07T05:11:04.232Z,107.53
2018-03-07T05:13:32.748Z,104.80
2018-03-07T05:16:01.157Z,104.00
2018-03-07T05:18:30.284Z,99.73
2018-03-07T05:20:58.823Z,90.57
2018-03-07T05:23:27.227Z,93.57
2018-03-07T05:25:55.638Z,104.80
2018-03-07T05:28:24.036Z,103.30
2018-03-07T05:30:52.512Z,102.63
2018-03-07T05:33:21.056Z,102.57
2018-03-07T05:35:49.459Z,104.17
2018-03-07T05:38:17.868Z,97.37
2018-03-07T05:40:46.251Z,92.37
2018-03-07T05:43:14.663Z,104.67
2018-03-07T05:45:43.128Z,99.90
2018-03-07T05:48:11.529Z,93.27
2018-03-07T05:50:39.948Z,90.30
2018-03-07T05:53:08.330Z,88.50
2018-03-07T05:55:36.702Z,108.13
2018-03-07T05:58:05.156Z,102.93
2018-03-07T06:00:33.646Z,111.10
2018-03-07T06:03:02.059Z,99.00
2018-03-07T06:05:30.611Z,105.67
2018-03-07T06:07:59.016Z,105.00
2018-03-07T06:10:27.464Z,107.73
2018-03-07T06:12:55.969Z,111.17
2018-03-07T06:15:24.391Z,109.00
2018-03-07T06:17:52.825Z,106.33
2018-03-07T06:20:21.232Z,118.57
2018-03-07T06:22:50.022Z,121.13
2018-03-07T06:25:18.385Z,131.63
2018-03-07T06:27:46.859Z,120.77
2018-03-07T06:30:15.274Z,128.80
2018-03-07T06:32:43.680Z,115.53
2018-03-07T06:35:12.142Z,130.97
2018-03-07T06:37:40.544Z,134.70
2018-03-07T06:40:08.960Z,145.50
2018-03-07T06:42:37.361Z,143.30
2018-03-07T06:45:05.811Z,147.50
2018-03-07T06:47:34.227Z,140.90
2018-03-07T06:50:02.635Z,146.80
2018-03-07T06:52:31.045Z,156.83
2018-03-07T06:54:59.501Z,168.57
2018-03-07T06:57:28.026Z,154.60
2018-03-07T06:59:59.182Z,156.30
2018-03-07T07:02:27.644Z,156.30
2018-03-07T07:04:56.118Z,143.17
2018-03-07T07:07:25.581Z,138.83
2018-03-07T07:09:54.053Z,139.23
2018-03-07T07:12:22.458Z,141.53
2018-03-07T07:14:50.976Z,138.37
2018-03-07T07:17:22.573Z,138.77
2018-03-07T07:19:51.083Z,134.70
2018-03-07T07:22:19.614Z,135.47
2018-03-07T07:24:48.162Z,134.43
2018-03-07T07:27:16.548Z,133.60
2018-03-07T07:29:45.018Z,132.90
2018-03-07T07:32:13.435Z,144.20
2018-03-07T07:34:41.914Z,135.40
2018-03-07T07:37:10.322Z,124.70
2018-03-07T07:39:38.725Z,132.90
2018-03-07T07:42:07.118Z,127.20
2018-03-07T07:44:35.516Z,120.53
2018-03-07T07:47:03.918Z,122.40
2018-03-07T07:49:32.297Z,120.60
2018-03-07T07:52:00.877Z,123.50
2018-03-07T07:54:29.332Z,126.13
2018-03-07T07:56:57.702Z,119.17
2018-03-07T07:59:26.122Z,122.67
2018-03-07T08:01:54.612Z,109.00
2018-03-07T08:04:22.988Z,112.10
2018-03-07T08:06:51.357Z,108.43
2018-03-07T08:09:19.766Z,110.17
2018-03-07T08:11:48.159Z,98.47
2018-03-07T08:14:16.595Z,101.37
2018-03-07T08:16:45.003Z,101.47
2018-03-07T08:19:13.550Z,94.37
2018-03-07T08:21:42.024Z,90.30
2018-03-07T08:24:10.431Z,84.73
2018-03-07T08:26:38.831Z,82.97
2018-03-07T08:29:07.236Z,81.37
2018-03-07T08:31:35.688Z,81.67
2018-03-07T08:34:04.084Z,76.43
2018-03-07T08:36:32.507Z,78.10
2018-03-07T08:39:00.912Z,77.00
2018-03-07T08:41:29.321Z,72.63
2018-03-07T08:43:57.721Z,66.20
2018-03-07T08:46:26.201Z,64.27
2018-03-07T08:48:54.665Z,65.10
2018-03-07T08:51:23.088Z,65.27
2018-03-07T08:53:51.494Z,59.47
2018-03-07T08:56:19.862Z,60.77
2018-03-07T08:58:48.277Z,60.40
2018-03-07T09:01:16.875Z,55.20
2018-03-07T09:03:45.979Z,62.70
2018-03-07T09:06:14.405Z,55.43
2018-03-07T09:08:42.814Z,64.43
2018-03-07T09:11:11.219Z,49.60
2018-03-07T09:13:39.667Z,51.13
2018-03-07T09:16:08.096Z,52.83
2018-03-07T09:18:36.578Z,58.23
2018-03-07T09:21:04.959Z,54.80
2018-03-07T09:23:33.350Z,48.80
2018-03-07T09:26:01.840Z,56.67
2018-03-07T09:28:30.236Z,58.07
2018-03-07T09:30:58.676Z,55.00
2018-03-07T09:33:27.128Z,55.67
2018-03-07T09:35:55.544Z,53.80
2018-03-07T09:38:24.040Z,57.83
2018-03-07T09:40:52.451Z,53.50
2018-03-07T09:43:20.928Z,53.53
2018-03-07T09:45:49.351Z,53.47
2018-03-07T09:48:17.748Z,56.13
2018-03-07T09:50:46.155Z,59.93
2018-03-07T09:53:14.556Z,58.50
2018-03-07T09:55:43.389Z,50.97
2018-03-07T09:58:11.804Z,56.20
2018-03-07T10:00:40.248Z,54.07
2018-03-07T10:03:08.648Z,53.70
2018-03-07T10:05:37.208Z,58.80
2018-03-07T10:08:05.617Z,58.87
2018-03-07T10:10:33.996Z,60.00
2018-03-07T10:13:02.386Z,62.10
2018-03-07T10:15:30.846Z,65.07
2018-03-07T10:17:59.319Z,62.97
2018-03-07T10:20:27.764Z,65.53
2018-03-07T10:22:56.347Z,70.77
2018-03-07T10:25:24.722Z,67.20
2018-03-07T10:27:53.209Z,67.50
2018-03-07T10:30:21.612Z,57.60
2018-03-07T10:32:50.010Z,55.00
2018-03-07T10:35:18.415Z,53.00
2018-03-07T10:37:46.954Z,69.57
2018-03-07T10:40:15.398Z,63.97
2018-03-07T10:42:43.791Z,71.97
2018-03-07T10:45:12.264Z,58.87
2018-03-07T10:47:40.660Z,44.40
2018-03-07T10:50:09.048Z,43.40
2018-03-07T10:52:37.456Z,35.40
2018-03-07T10:55:06.002Z,35.63
2018-03-07T10:57:34.440Z,37.13
2018-03-07T11:00:02.856Z,33.33
2018-03-07T11:02:31.365Z,37.23
2018-03-07T11:04:59.805Z,35.93
2018-03-07T11:07:28.338Z,39.67
2018-03-07T11:09:56.706Z,38.50
2018-03-07T11:12:25.078Z,39.83
2018-03-07T11:14:53.587Z,33.87
2018-03-07T11:17:21.992Z,38.57
2018-03-07T11:19:50.412Z,33.07
2018-03-07T11:22:18.809Z,35.97
2018-03-07T11:24:47.232Z,32.10
2018-03-07T11:27:15.696Z,32.57
2018-03-07T11:29:44.100Z,29.47
2018-03-07T11:32:12.531Z,26.90
2018-03-07T11:34:41.006Z,29.57
2018-03-07T11:37:09.403Z,28.20
2018-03-07T11:39:37.873Z,30.97
2018-03-07T11:42:06.271Z,25.23
2018-03-07T11:44:34.771Z,24.60
2018-03-07T11:47:03.253Z,31.17
2018-03-07T11:49:31.643Z,28.87
2018-03-07T11:52:00.084Z,30.43
2018-03-07T11:54:28.492Z,32.13
2018-03-07T11:56:57.044Z,30.30
2018-03-07T11:59:25.432Z,31.63
2018-03-07T12:01:53.931Z,35.60
2018-03-07T12:04:22.346Z,29.00
2018-03-07T12:06:50.737Z,32.40
2018-03-07T12:09:19.152Z,29.10
2018-03-07T12:11:47.589Z,28.87
2018-03-07T12:14:16.122Z,30.10
2018-03-07T12:16:44.518Z,23.60
2018-03-07T12:19:12.938Z,24.00
2018-03-07T12:21:41.371Z,25.00
2018-03-07T12:24:09.894Z,22.20
2018-03-07T12:26:38.343Z,24.53
2018-03-07T12:29:06.720Z,22.23
2018-03-07T12:31:35.095Z,20.13
2018-03-07T12:34:03.473Z,26.27
2018-03-07T12:36:31.867Z,18.30
2018-03-07T12:39:00.341Z,20.50
2018-03-07T12:41:28.861Z,21.03
2018-03-07T12:43:57.297Z,21.47
2018-03-07T12:46:25.743Z,23.67
2018-03-07T12:48:54.240Z,25.33
2018-03-07T12:51:22.736Z,26.03
2018-03-07T12:53:51.153Z,28.80
2018-03-07T12:56:19.729Z,25.37
2018-03-07T12:58:48.208Z,26.70
2018-03-07T13:01:16.607Z,23.30
2018-03-07T13:03:44.994Z,28.47
2018-03-07T13:06:13.392Z,27.67
2018-03-07T13:08:42.025Z,26.63
2018-03-07T13:11:10.431Z,27.43
2018-03-07T13:13:38.816Z,25.00
2018-03-07T13:16:07.209Z,28.97
2018-03-07T13:18:35.626Z,21.63
2018-03-07T13:21:04.080Z,20.80
2018-03-07T13:23:32.497Z,20.13
2018-03-07T13:26:00.943Z,21.87
2018-03-07T13:28:29.356Z,21.80
2018-03-07T13:30:57.768Z,24.83
2018-03-07T13:33:26.188Z,23.40
2018-03-07T13:35:54.608Z,22.07
2018-03-07T13:38:23.083Z,19.07
2018-03-07T13:40:51.506Z,15.27
2018-03-07T13:43:19.901Z,13.90
2018-03-07T13:45:48.296Z,17.60
2018-03-07T13:48:16.659Z,13.70
2018-03-07T13:50:45.088Z,7.33
2018-03-07T13:53:13.452Z,7.63
2018-03-07T13:55:41.828Z,7.80
2018-03-07T13:58:10.210Z,5.00
2018-03-07T14:00:38.633Z,9.43
2018-03-07T14:03:07.043Z,5.73
2018-03-07T14:05:35.447Z,5.47
2018-03-07T14:08:03.846Z,8.30
2018-03-07T14:10:32.297Z,8.83
2018-03-07T14:13:00.716Z,6.27
2018-03-07T14:15:29.158Z,6.90
2018-03-07T14:17:57.528Z,7.07
2018-03-07T14:20:25.926Z,8.23
2018-03-07T14:22:54.276Z,9.27
2018-03-07T14:25:22.643Z,8.20
2018-03-07T14:27:51.308Z,7.40
2018-03-07T14:30:19.670Z,7.20
2018-03-07T14:32:48.035Z,5.90
2018-03-07T14:35:16.462Z,7.20
2018-03-07T14:37:44.885Z,7.50
2018-03-07T14:40:13.382Z,4.97
2018-03-07T14:42:41.749Z,7.47
2018-03-07T14:45:10.123Z,6.27
2018-03-07T14:47:38.507Z,7.27
2018-03-07T14:50:08.417Z,7.37
2018-03-07T14:52:37.027Z,10.20
2018-03-07T14:55:05.698Z,7.33
2018-03-07T14:57:34.090Z,5.83
2018-03-07T15:00:02.566Z,6.80
2018-03-07T15:02:30.990Z,9.77
2018-03-07T15:05:00.610Z,6.80
2018-03-07T15:07:30.796Z,10.20
2018-03-07T15:09:59.399Z,7.20
2018-03-07T15:12:28.055Z,14.93
2018-03-07T15:14:56.457Z,10.67
2018-03-07T15:17:24.941Z,12.60
2018-03-07T15:19:53.381Z,7.40
2018-03-07T15:22:21.780Z,8.37
2018-03-07T15:24:50.196Z,10.40
2018-03-07T15:27:18.773Z,15.00
2018-03-07T15:29:47.256Z,60.40
2018-03-07T15:32:16.791Z,8.80
2018-03-07T15:34:45.573Z,11.67
2018-03-07T15:37:13.991Z,5.90
2018-03-07T15:39:42.441Z,4.50
2018-03-07T15:42:10.896Z,4.80
2018-03-07T15:44:39.481Z,4.30
2018-03-07T15:47:07.939Z,4.90
2018-03-07T15:49:36.387Z,5.30
2018-03-07T15:52:04.756Z,4.00
2018-03-07T15:54:33.359Z,3.60
2018-03-07T15:57:01.747Z,4.87
2018-03-07T15:59:30.200Z,4.70
2018-03-07T16:01:58.695Z,5.03
2018-03-07T16:04:27.127Z,3.70
2018-03-07T16:06:55.667Z,4.60
2018-03-07T16:09:24.173Z,4.03
2018-03-07T16:11:52.604Z,4.00
2018-03-07T16:14:21.182Z,4.43
2018-03-07T16:16:49.582Z,3.23
2018-03-07T16:19:18.070Z,5.40
2018-03-07T16:21:46.442Z,3.77
2018-03-07T16:24:14.826Z,4.97
2018-03-07T16:26:43.253Z,4.00
2018-03-07T16:29:11.705Z,3.80
2018-03-07T16:31:40.136Z,4.43
2018-03-07T16:34:08.748Z,4.20
2018-03-07T16:36:37.420Z,4.00
2018-03-07T16:39:05.887Z,3.57
2018-03-07T16:41:34.484Z,4.80
2018-03-07T16:44:03.496Z,5.90
2018-03-07T16:46:31.854Z,4.30
2018-03-07T16:49:00.384Z,3.07
2018-03-07T16:51:28.775Z,3.23
2018-03-07T16:53:57.568Z,2.70
2018-03-07T16:56:26.276Z,3.83
2018-03-07T16:58:54.692Z,3.10
2018-03-07T17:01:23.096Z,2.50
2018-03-07T17:03:51.480Z,3.17
2018-03-07T17:06:19.967Z,4.03
2018-03-07T17:08:50.760Z,4.37
2018-03-07T17:11:20.226Z,2.50
2018-03-07T17:13:48.746Z,2.60
2018-03-07T17:16:17.158Z,3.37
2018-03-07T17:18:45.543Z,4.87
2018-03-07T17:21:13.911Z,3.90
2018-03-07T17:23:42.270Z,3.10
2018-03-07T17:26:10.749Z,3.93
2018-03-07T17:31:12.840Z,3.27
2018-03-07T17:33:41.219Z,7.53
2018-03-07T17:36:09.584Z,3.63
2018-03-07T17:38:38.000Z,3.97
2018-03-07T17:41:06.445Z,4.23
2018-03-07T17:43:34.923Z,5.10
2018-03-07T17:46:03.313Z,6.23
2018-03-07T17:48:31.690Z,6.43
2018-03-07T17:51:00.094Z,4.87
2018-03-07T17:53:28.490Z,4.27
2018-03-07T17:55:56.962Z,3.83
2018-03-07T17:58:25.352Z,6.50
2018-03-07T18:00:53.791Z,5.03
2018-03-07T18:03:22.180Z,7.80
2018-03-07T18:05:50.575Z,6.40
2018-03-07T18:08:18.972Z,5.00
2018-03-07T18:10:47.343Z,4.87
2018-03-07T18:13:15.792Z,5.30
2018-03-07T18:15:44.189Z,6.07
2018-03-07T18:18:12.540Z,5.03
2018-03-07T18:20:40.927Z,5.30
2018-03-07T18:23:09.336Z,6.67
2018-03-07T18:25:37.965Z,6.63
2018-03-07T18:28:06.473Z,6.30
2018-03-07T18:30:34.883Z,6.17
2018-03-07T18:33:03.280Z,5.60
2018-03-07T18:35:31.670Z,7.20
2018-03-07T18:38:00.302Z,7.23
2018-03-07T18:40:29.394Z,7.60
2018-03-07T18:42:57.771Z,7.03
2018-03-07T18:45:26.216Z,7.23
2018-03-07T18:47:54.574Z,8.40
2018-03-07T18:50:22.966Z,8.70
2018-03-07T18:52:51.335Z,7.53
2018-03-07T18:55:19.821Z,13.30
2018-03-07T18:57:48.175Z,9.33
2018-03-07T19:00:16.547Z,12.70
2018-03-07T19:02:44.967Z,8.90
2018-03-07T19:05:13.337Z,11.60
2018-03-07T19:07:41.984Z,11.63
2018-03-07T19:10:10.431Z,13.80
2018-03-07T19:12:38.928Z,11.50
2018-03-07T19:15:07.370Z,10.63
2018-03-07T19:17:35.790Z,12.30
2018-03-07T19:20:04.730Z,12.80
2018-03-07T19:22:33.109Z,13.40
2018-03-07T19:25:01.545Z,13.70
2018-03-07T19:27:29.942Z,13.33
2018-03-07T19:29:58.351Z,11.77
2018-03-07T19:32:26.829Z,13.47
2018-03-07T19:34:55.235Z,11.30
2018-03-07T19:37:23.611Z,12.70
2018-03-07T19:39:51.984Z,12.03
2018-03-07T19:42:20.407Z,12.60
2018-03-07T19:44:48.807Z,12.23
2018-03-07T19:47:17.208Z,13.53
2018-03-07T19:49:45.676Z,10.83
2018-03-07T19:52:14.108Z,13.53
2018-03-07T19:54:42.665Z,11.40
2018-03-07T19:57:11.061Z,15.20
2018-03-07T19:59:39.572Z,11.00
2018-03-07T20:02:08.000Z,11.60
2018-03-07T20:04:36.429Z,14.50
2018-03-07T20:07:04.865Z,15.30
2018-03-07T20:09:33.251Z,11.10
2018-03-07T20:12:01.683Z,11.93
2018-03-07T20:14:30.250Z,12.57
2018-03-07T20:16:58.719Z,11.87
2018-03-07T20:19:27.159Z,14.10
2018-03-07T20:21:55.671Z,14.53
2018-03-07T20:24:24.158Z,23.23
2018-03-07T20:26:52.559Z,16.20
2018-03-07T20:29:21.108Z,14.23
2018-03-07T20:31:49.559Z,14.67
2018-03-07T20:34:17.992Z,14.67
2018-03-07T20:36:46.434Z,12.40
2018-03-07T20:39:14.852Z,13.00
2018-03-07T20:41:43.352Z,14.40
2018-03-07T20:44:11.761Z,15.93
2018-03-07T20:46:40.227Z,13.73
2018-03-07T20:49:08.595Z,13.07
2018-03-07T20:51:36.990Z,16.10
2018-03-07T20:54:05.377Z,12.37
2018-03-07T20:56:33.787Z,11.10
2018-03-07T20:59:02.329Z,14.77
2018-03-07T21:01:30.732Z,15.27
2018-03-07T21:03:59.654Z,11.60
2018-03-07T21:06:28.020Z,13.47
2018-03-07T21:08:56.440Z,14.40
2018-03-07T21:11:24.986Z,12.00
2018-03-07T21:13:53.421Z,11.40
2018-03-07T21:16:21.888Z,15.70
2018-03-07T21:18:50.309Z,12.03
2018-03-07T21:21:18.689Z,12.60
2018-03-07T21:23:47.096Z,12.20
2018-03-07T21:26:15.499Z,9.50
2018-03-07T21:28:43.929Z,11.67
2018-03-07T21:31:12.335Z,12.47
2018-03-07T21:33:41.123Z,8.60
2018-03-07T21:36:09.874Z,11.90
2018-03-07T21:38:38.430Z,10.43
2018-03-07T21:41:06.868Z,11.53
2018-03-07T21:43:35.258Z,10.27
2018-03-07T21:46:03.636Z,8.70
2018-03-07T21:48:32.207Z,10.73
2018-03-07T21:51:00.657Z,10.87
2018-03-07T21:53:29.075Z,11.07
2018-03-07T21:55:57.503Z,11.07
2018-03-07T21:58:25.892Z,11.50
2018-03-07T22:00:54.519Z,11.70
2018-03-07T22:03:22.921Z,11.83
2018-03-07T22:05:51.298Z,12.37
2018-03-07T22:08:19.701Z,11.10
2018-03-07T22:10:48.110Z,12.07
2018-03-07T22:13:16.957Z,10.07
2018-03-07T22:15:45.394Z,8.23
2018-03-07T22:18:13.861Z,7.97
2018-03-07T22:20:42.320Z,7.70
2018-03-07T22:23:10.705Z,10.87
2018-03-07T22:25:39.124Z,6.47
2018-03-07T22:28:07.516Z,7.00
2018-03-07T22:30:35.879Z,5.90
2018-03-07T22:33:04.254Z,6.93
2018-03-07T22:35:32.639Z,3.53
2018-03-07T22:38:03.697Z,3.37
2018-03-07T22:40:39.717Z,3.62
2018-03-07T22:43:09.464Z,3.37
2018-03-07T22:45:37.850Z,3.17
2018-03-07T22:48:06.256Z,3.08
2018-03-07T22:50:34.648Z,3.50
2018-03-07T22:53:03.018Z,2.33
2018-03-07T22:55:31.409Z,2.83
2018-03-07T22:57:59.808Z,2.53
2018-03-07T23:00:33.840Z,3.15
2018-03-07T23:03:02.232Z,2.67
2018-03-07T23:05:30.636Z,2.33
2018-03-07T23:07:59.027Z,2.42
2018-03-07T23:10:27.408Z,3.20
2018-03-07T23:12:56.047Z,3.07
2018-03-07T23:15:24.705Z,2.60
2018-03-07T23:17:53.077Z,3.15
2018-03-07T23:20:21.481Z,3.33
2018-03-07T23:22:50.056Z,3.37
2018-03-07T23:25:18.663Z,4.35
2018-03-07T23:27:47.051Z,7.55
2018-03-07T23:30:15.463Z,7.78
2018-03-07T23:32:43.846Z,10.93
2018-03-07T23:35:12.230Z,12.30
2018-03-07T23:37:40.625Z,11.12
2018-03-07T23:40:09.021Z,13.48
2018-03-07T23:42:37.575Z,15.15
2018-03-07T23:45:06.288Z,13.05
2018-03-07T23:47:34.687Z,10.07
2018-03-07T23:50:03.071Z,11.30
2018-03-07T23:52:31.467Z,12.25
2018-03-07T23:54:59.972Z,11.45
2018-03-07T23:57:28.374Z,10.95
2018-03-07T23:59:56.772Z,10.63
